sensor_id;sensor_type;location;lat;lon;timestamp;pressure;altitude;pressure_sealevel;temperature;humidity
21594;BME280;10959;51.328;7.322;2022-11-11T00:01:33;100000.69;;;11.67;72.03
21594;BME280;10959;51.328;7.322;2022-11-11T00:04:00;99999.88;;;11.65;72.03
21594;BME280;10959;51.328;7.322;2022-11-11T00:06:26;100005.34;;;11.62;72.22
21594;BME280;10959;51.328;7.322;2022-11-11T00:08:53;100005.47;;;11.58;72.32
21594;BME280;10959;51.328;7.322;2022-11-11T00:11:19;100000.06;;;11.58;72.42
21594;BME280;10959;51.328;7.322;2022-11-11T00:13:45;100023.63;;;11.53;72.34
21594;BME280;10959;51.328;7.322;2022-11-11T00:16:14;100039.72;;;11.56;72.24
21594;BME280;10959;51.328;7.322;2022-11-11T00:18:42;100044.25;;;11.54;72.49
21594;BME280;10959;51.328;7.322;2022-11-11T00:21:27;100059.75;;;11.49;72.75
21594;BME280;10959;51.328;7.322;2022-11-11T00:24:19;100058.47;;;11.33;72.67
21594;BME280;10959;51.328;7.322;2022-11-11T00:27:03;100058.06;;;11.45;72.40
21594;BME280;10959;51.328;7.322;2022-11-11T00:29:30;100058.06;;;11.45;72.90
21594;BME280;10959;51.328;7.322;2022-11-11T00:31:58;100055.28;;;11.48;72.55
21594;BME280;10959;51.328;7.322;2022-11-11T00:34:43;100049.13;;;11.45;72.82
21594;BME280;10959;51.328;7.322;2022-11-11T00:37:29;100045.78;;;11.36;72.99
21594;BME280;10959;51.328;7.322;2022-11-11T00:39:56;100050.19;;;11.39;73.22
21594;BME280;10959;51.328;7.322;2022-11-11T00:42:22;100058.28;;;11.39;73.05
21594;BME280;10959;51.328;7.322;2022-11-11T00:44:49;100042.28;;;11.33;73.31
21594;BME280;10959;51.328;7.322;2022-11-11T00:47:16;100038.56;;;11.37;73.09
21594;BME280;10959;51.328;7.322;2022-11-11T00:50:01;100038.88;;;11.28;73.47
21594;BME280;10959;51.328;7.322;2022-11-11T00:52:45;100040.72;;;11.26;73.62
21594;BME280;10959;51.328;7.322;2022-11-11T00:55:11;100037.00;;;11.30;73.32
21594;BME280;10959;51.328;7.322;2022-11-11T00:57:38;100041.47;;;11.31;73.53
21594;BME280;10959;51.328;7.322;2022-11-11T01:00:05;100035.22;;;11.29;73.49
21594;BME280;10959;51.328;7.322;2022-11-11T01:02:33;100028.81;;;11.33;73.34
21594;BME280;10959;51.328;7.322;2022-11-11T01:04:59;100037.91;;;11.29;73.46
21594;BME280;10959;51.328;7.322;2022-11-11T01:07:26;100038.66;;;11.34;73.30
21594;BME280;10959;51.328;7.322;2022-11-11T01:09:52;100040.44;;;11.35;73.12
21594;BME280;10959;51.328;7.322;2022-11-11T01:12:19;100038.78;;;11.31;73.46
21594;BME280;10959;51.328;7.322;2022-11-11T01:14:45;100029.94;;;11.26;73.49
21594;BME280;10959;51.328;7.322;2022-11-11T01:17:11;100039.63;;;11.31;73.53
21594;BME280;10959;51.328;7.322;2022-11-11T01:19:39;100038.88;;;11.28;73.29
21594;BME280;10959;51.328;7.322;2022-11-11T01:22:06;100037.00;;;11.30;73.48
21594;BME280;10959;51.328;7.322;2022-11-11T01:24:32;100037.09;;;11.27;73.54
21594;BME280;10959;51.328;7.322;2022-11-11T01:26:58;100033.47;;;11.28;73.28
21594;BME280;10959;51.328;7.322;2022-11-11T01:29:25;100044.06;;;11.34;73.18
21594;BME280;10959;51.328;7.322;2022-11-11T01:31:51;100039.59;;;11.33;73.10
21594;BME280;10959;51.328;7.322;2022-11-11T01:34:18;100041.41;;;11.32;72.86
21594;BME280;10959;51.328;7.322;2022-11-11T01:36:46;100045.94;;;11.32;72.79
21594;BME280;10959;51.328;7.322;2022-11-11T01:39:12;100051.41;;;11.29;73.13
21594;BME280;10959;51.328;7.322;2022-11-11T01:41:39;100060.44;;;11.28;73.17
21594;BME280;10959;51.328;7.322;2022-11-11T01:44:19;100058.19;;;11.14;72.93
21594;BME280;10959;51.328;7.322;2022-11-11T01:46:49;100062.50;;;11.19;72.94
21594;BME280;10959;51.328;7.322;2022-11-11T01:49:24;100066.22;;;11.15;73.14
21594;BME280;10959;51.328;7.322;2022-11-11T01:51:57;100069.94;;;11.11;72.97
21594;BME280;10959;51.328;7.322;2022-11-11T01:54:30;100064.34;;;11.17;73.47
21594;BME280;10959;51.328;7.322;2022-11-11T01:57:01;100064.44;;;11.14;73.15
21594;BME280;10959;51.328;7.322;2022-11-11T01:59:31;100051.72;;;11.19;73.05
21594;BME280;10959;51.328;7.322;2022-11-11T02:02:00;100060.84;;;11.15;73.38
21594;BME280;10959;51.328;7.322;2022-11-11T02:04:28;100050.75;;;11.22;73.31
21594;BME280;10959;51.328;7.322;2022-11-11T02:07:14;100048.16;;;11.17;72.89
21594;BME280;10959;51.328;7.322;2022-11-11T02:09:42;100060.72;;;11.18;72.90
21594;BME280;10959;51.328;7.322;2022-11-11T02:12:10;100053.38;;;11.23;72.92
21594;BME280;10959;51.328;7.322;2022-11-11T02:14:57;100057.31;;;11.13;72.82
21594;BME280;10959;51.328;7.322;2022-11-11T02:17:26;100051.06;;;11.11;72.99
21594;BME280;10959;51.328;7.322;2022-11-11T02:19:55;100058.13;;;11.15;72.93
21594;BME280;10959;51.328;7.322;2022-11-11T02:22:29;100054.06;;;11.02;72.96
21594;BME280;10959;51.328;7.322;2022-11-11T02:25:01;100062.72;;;11.13;72.83
21594;BME280;10959;51.328;7.322;2022-11-11T02:27:29;100056.25;;;11.17;72.81
21594;BME280;10959;51.328;7.322;2022-11-11T02:29:58;100050.84;;;11.19;72.57
21594;BME280;10959;51.328;7.322;2022-11-11T02:32:25;100054.47;;;11.18;72.77
21594;BME280;10959;51.328;7.322;2022-11-11T02:34:52;100059.97;;;11.15;72.83
21594;BME280;10959;51.328;7.322;2022-11-11T02:37:20;100054.47;;;11.18;72.70
21594;BME280;10959;51.328;7.322;2022-11-11T02:39:49;100048.28;;;11.14;72.65
21594;BME280;10959;51.328;7.322;2022-11-11T02:42:18;100056.56;;;11.08;72.96
21594;BME280;10959;51.328;7.322;2022-11-11T02:44:46;100058.19;;;11.14;72.74
21594;BME280;10959;51.328;7.322;2022-11-11T02:47:12;100063.72;;;11.09;72.85
21594;BME280;10959;51.328;7.322;2022-11-11T02:49:39;100060.94;;;11.12;72.85
21594;BME280;10959;51.328;7.322;2022-11-11T02:52:05;100055.66;;;11.09;72.67
21594;BME280;10959;51.328;7.322;2022-11-11T02:54:32;100069.03;;;11.12;72.39
21594;BME280;10959;51.328;7.322;2022-11-11T02:56:58;100060.94;;;11.12;72.46
21594;BME280;10959;51.328;7.322;2022-11-11T02:59:37;100067.56;;;11.02;72.47
21594;BME280;10959;51.328;7.322;2022-11-11T03:02:05;100063.84;;;11.06;72.87
21594;BME280;10959;51.328;7.322;2022-11-11T03:04:32;100070.16;;;11.05;72.48
21594;BME280;10959;51.328;7.322;2022-11-11T03:06:58;100072.28;;;10.94;73.11
21594;BME280;10959;51.328;7.322;2022-11-11T03:09:25;100077.56;;;10.97;72.93
21594;BME280;10959;51.328;7.322;2022-11-11T03:11:51;100073.75;;;11.04;72.41
21594;BME280;10959;51.328;7.322;2022-11-11T03:14:18;100066.59;;;11.03;72.38
21594;BME280;10959;51.328;7.322;2022-11-11T03:16:46;100067.50;;;11.03;72.58
21594;BME280;10959;51.328;7.322;2022-11-11T03:19:30;100069.34;;;11.01;72.29
21594;BME280;10959;51.328;7.322;2022-11-11T03:21:57;100068.38;;;11.04;72.54
21594;BME280;10959;51.328;7.322;2022-11-11T03:24:23;100070.25;;;11.02;72.28
21594;BME280;10959;51.328;7.322;2022-11-11T03:27:09;100065.03;;;10.96;72.50
21594;BME280;10959;51.328;7.322;2022-11-11T03:29:36;100060.59;;;10.95;72.63
21594;BME280;10959;51.328;7.322;2022-11-11T03:32:04;100063.19;;;10.98;72.25
21594;BME280;10959;51.328;7.322;2022-11-11T03:34:31;100064.91;;;10.99;72.27
21594;BME280;10959;51.328;7.322;2022-11-11T03:36:57;100062.22;;;10.99;72.23
21594;BME280;10959;51.328;7.322;2022-11-11T03:39:41;100063.09;;;11.01;72.53
21594;BME280;10959;51.328;7.322;2022-11-11T03:42:08;100058.66;;;10.98;72.21
21594;BME280;10959;51.328;7.322;2022-11-11T03:44:34;100063.09;;;11.01;72.03
21594;BME280;10959;51.328;7.322;2022-11-11T03:47:01;100061.31;;;11.00;72.18
21594;BME280;10959;51.328;7.322;2022-11-11T03:49:28;100057.78;;;10.98;71.73
21594;BME280;10959;51.328;7.322;2022-11-11T03:51:55;100054.34;;;10.93;72.19
21594;BME280;10959;51.328;7.322;2022-11-11T03:54:21;100049.06;;;10.89;72.27
21594;BME280;10959;51.328;7.322;2022-11-11T03:56:48;100044.50;;;10.92;72.37
21594;BME280;10959;51.328;7.322;2022-11-11T03:59:14;100043.66;;;10.89;72.31
21594;BME280;10959;51.328;7.322;2022-11-11T04:01:41;100041.78;;;10.92;72.23
21594;BME280;10959;51.328;7.322;2022-11-11T04:04:25;100045.53;;;10.87;72.53
21594;BME280;10959;51.328;7.322;2022-11-11T04:07:08;100042.97;;;10.83;72.70
21594;BME280;10959;51.328;7.322;2022-11-11T04:09:52;100056.47;;;10.81;72.52
21594;BME280;10959;51.328;7.322;2022-11-11T04:12:37;100050.22;;;10.81;72.58
21594;BME280;10959;51.328;7.322;2022-11-11T04:15:19;100052.97;;;10.79;72.85
21594;BME280;10959;51.328;7.322;2022-11-11T04:18:03;100045.72;;;10.81;72.82
21594;BME280;10959;51.328;7.322;2022-11-11T04:20:29;100049.34;;;10.80;72.44
21594;BME280;10959;51.328;7.322;2022-11-11T04:23:15;100052.97;;;10.79;72.29
21594;BME280;10959;51.328;7.322;2022-11-11T04:25:41;100042.97;;;10.83;72.32
21594;BME280;10959;51.328;7.322;2022-11-11T04:28:13;100051.00;;;10.84;72.43
21594;BME280;10959;51.328;7.322;2022-11-11T04:30:57;100060.13;;;10.80;72.43
21594;BME280;10959;51.328;7.322;2022-11-11T04:33:24;100052.06;;;10.80;72.68
21594;BME280;10959;51.328;7.322;2022-11-11T04:35:50;100059.13;;;10.83;72.51
21594;BME280;10959;51.328;7.322;2022-11-11T04:38:17;100051.84;;;10.86;72.50
21594;BME280;10959;51.328;7.322;2022-11-11T04:41:01;100057.34;;;10.83;72.61
21594;BME280;10959;51.328;7.322;2022-11-11T04:43:33;100058.16;;;10.85;72.39
21594;BME280;10959;51.328;7.322;2022-11-11T04:46:20;100052.06;;;10.79;72.60
21594;BME280;10959;51.328;7.322;2022-11-11T04:48:45;100055.75;;;10.76;72.62
21594;BME280;10959;51.328;7.322;2022-11-11T04:51:12;100064.63;;;10.80;72.60
21594;BME280;10959;51.328;7.322;2022-11-11T04:53:40;100060.94;;;10.82;72.38
21594;BME280;10959;51.328;7.322;2022-11-11T04:56:07;100067.25;;;10.81;72.24
21594;BME280;10959;51.328;7.322;2022-11-11T04:58:51;100064.63;;;10.80;72.34
21594;BME280;10959;51.328;7.322;2022-11-11T05:01:37;100071.06;;;10.74;72.75
21594;BME280;10959;51.328;7.322;2022-11-11T05:04:21;100065.78;;;10.71;72.65
21594;BME280;10959;51.328;7.322;2022-11-11T05:06:48;100059.38;;;10.75;72.39
21594;BME280;10959;51.328;7.322;2022-11-11T05:09:33;100062.06;;;10.75;72.31
21594;BME280;10959;51.328;7.322;2022-11-11T05:12:00;100065.59;;;10.77;72.27
21594;BME280;10959;51.328;7.322;2022-11-11T05:14:26;100064.72;;;10.77;72.26
21594;BME280;10959;51.328;7.322;2022-11-11T05:17:13;100069.28;;;10.73;72.81
21594;BME280;10959;51.328;7.322;2022-11-11T05:19:57;100063.84;;;10.76;72.39
21594;BME280;10959;51.328;7.322;2022-11-11T05:22:42;100064.66;;;10.78;72.49
21594;BME280;10959;51.328;7.322;2022-11-11T05:25:10;100058.47;;;10.76;72.18
21594;BME280;10959;51.328;7.322;2022-11-11T05:27:54;100058.53;;;10.73;72.57
21594;BME280;10959;51.328;7.322;2022-11-11T05:30:21;100053.94;;;10.77;72.16
21594;BME280;10959;51.328;7.322;2022-11-11T05:32:48;100069.28;;;10.73;72.51
21594;BME280;10959;51.328;7.322;2022-11-11T05:35:15;100063.00;;;10.74;72.55
21594;BME280;10959;51.328;7.322;2022-11-11T05:37:42;100069.22;;;10.76;72.37
21594;BME280;10959;51.328;7.322;2022-11-11T05:40:11;100069.41;;;10.70;72.45
21594;BME280;10959;51.328;7.322;2022-11-11T05:42:41;100069.41;;;10.70;72.04
21594;BME280;10959;51.328;7.322;2022-11-11T05:45:08;100072.94;;;10.72;72.36
21594;BME280;10959;51.328;7.322;2022-11-11T05:47:35;100067.56;;;10.72;72.59
21594;BME280;10959;51.328;7.322;2022-11-11T05:50:02;100074.69;;;10.73;72.19
21594;BME280;10959;51.328;7.322;2022-11-11T05:52:28;100079.19;;;10.72;72.29
21594;BME280;10959;51.328;7.322;2022-11-11T05:54:56;100078.34;;;10.72;72.40
21594;BME280;10959;51.328;7.322;2022-11-11T05:57:23;100072.09;;;10.70;72.60
21594;BME280;10959;51.328;7.322;2022-11-11T05:59:50;100072.94;;;10.72;72.25
21594;BME280;10959;51.328;7.322;2022-11-11T06:02:16;100074.88;;;10.67;72.57
21594;BME280;10959;51.328;7.322;2022-11-11T06:04:43;100070.50;;;10.63;72.74
21594;BME280;10959;51.328;7.322;2022-11-11T06:07:09;100069.50;;;10.67;72.92
21594;BME280;10959;51.328;7.322;2022-11-11T06:09:36;100067.84;;;10.61;72.82
21594;BME280;10959;51.328;7.322;2022-11-11T06:12:02;100067.81;;;10.63;72.71
21594;BME280;10959;51.328;7.322;2022-11-11T06:14:30;100066.94;;;10.62;72.93
21594;BME280;10959;51.328;7.322;2022-11-11T06:16:57;100069.78;;;10.58;73.18
21594;BME280;10959;51.328;7.322;2022-11-11T06:19:23;100070.69;;;10.57;72.79
21594;BME280;10959;51.328;7.322;2022-11-11T06:21:50;100079.53;;;10.62;72.90
21594;BME280;10959;51.328;7.322;2022-11-11T06:24:22;100091.31;;;10.58;72.87
21594;BME280;10959;51.328;7.322;2022-11-11T06:26:49;100094.94;;;10.57;72.86
21594;BME280;10959;51.328;7.322;2022-11-11T06:29:15;100112.78;;;10.61;72.88
21594;BME280;10959;51.328;7.322;2022-11-11T06:31:43;100121.78;;;10.60;72.98
21594;BME280;10959;51.328;7.322;2022-11-11T06:34:10;100119.91;;;10.63;72.93
21594;BME280;10959;51.328;7.322;2022-11-11T06:36:37;100123.47;;;10.64;73.03
21594;BME280;10959;51.328;7.322;2022-11-11T06:39:03;100116.25;;;10.64;72.95
21594;BME280;10959;51.328;7.322;2022-11-11T06:41:30;100119.91;;;10.63;72.44
21594;BME280;10959;51.328;7.322;2022-11-11T06:43:56;100124.38;;;10.63;72.88
21594;BME280;10959;51.328;7.322;2022-11-11T06:46:24;100133.41;;;10.62;72.81
21594;BME280;10959;51.328;7.322;2022-11-11T06:48:52;100130.72;;;10.62;72.90
21594;BME280;10959;51.328;7.322;2022-11-11T06:51:18;100139.72;;;10.61;72.85
21594;BME280;10959;51.328;7.322;2022-11-11T06:53:45;100139.81;;;10.58;72.98
21594;BME280;10959;51.328;7.322;2022-11-11T06:56:12;100146.03;;;10.60;72.63
21594;BME280;10959;51.328;7.322;2022-11-11T06:58:39;100141.63;;;10.55;72.87
21594;BME280;10959;51.328;7.322;2022-11-11T07:01:06;100151.31;;;10.63;72.66
21594;BME280;10959;51.328;7.322;2022-11-11T07:03:33;100152.31;;;10.59;72.75
21594;BME280;10959;51.328;7.322;2022-11-11T07:06:02;100145.09;;;10.61;72.72
21594;BME280;10959;51.328;7.322;2022-11-11T07:08:29;100141.41;;;10.65;72.58
21594;BME280;10959;51.328;7.322;2022-11-11T07:10:56;100144.13;;;10.63;72.83
21594;BME280;10959;51.328;7.322;2022-11-11T07:13:23;100159.31;;;10.66;72.80
21594;BME280;10959;51.328;7.322;2022-11-11T07:15:49;100153.00;;;10.67;72.83
21594;BME280;10959;51.328;7.322;2022-11-11T07:18:16;100163.78;;;10.67;72.73
21594;BME280;10959;51.328;7.322;2022-11-11T07:20:42;100158.38;;;10.67;72.70
21594;BME280;10959;51.328;7.322;2022-11-11T07:23:10;100165.50;;;10.69;72.29
21594;BME280;10959;51.328;7.322;2022-11-11T07:25:37;100173.63;;;10.68;72.68
21594;BME280;10959;51.328;7.322;2022-11-11T07:28:03;100174.47;;;10.70;72.78
21594;BME280;10959;51.328;7.322;2022-11-11T07:30:30;100183.31;;;10.75;72.42
21594;BME280;10959;51.328;7.322;2022-11-11T07:32:56;100185.81;;;10.81;72.34
21594;BME280;10959;51.328;7.322;2022-11-11T07:35:23;100184.84;;;10.84;72.36
21594;BME280;10959;51.328;7.322;2022-11-11T07:37:49;100184.81;;;10.85;72.23
21594;BME280;10959;51.328;7.322;2022-11-11T07:40:18;100183.97;;;10.83;72.06
21594;BME280;10959;51.328;7.322;2022-11-11T07:42:45;100182.03;;;10.88;71.97
21594;BME280;10959;51.328;7.322;2022-11-11T07:45:12;100185.66;;;10.87;71.94
21594;BME280;10959;51.328;7.322;2022-11-11T07:47:41;100194.75;;;10.83;71.92
21594;BME280;10959;51.328;7.322;2022-11-11T07:50:09;100200.06;;;10.86;72.12
21594;BME280;10959;51.328;7.322;2022-11-11T07:52:35;100198.19;;;10.88;72.07
21594;BME280;10959;51.328;7.322;2022-11-11T07:55:02;100190.19;;;10.85;72.46
21594;BME280;10959;51.328;7.322;2022-11-11T07:57:30;100178.41;;;10.89;71.91
21594;BME280;10959;51.328;7.322;2022-11-11T07:59:57;100185.69;;;10.86;72.09
21594;BME280;10959;51.328;7.322;2022-11-11T08:02:23;100164.97;;;10.88;72.11
21594;BME280;10959;51.328;7.322;2022-11-11T08:04:50;100171.97;;;10.95;72.20
21594;BME280;10959;51.328;7.322;2022-11-11T08:07:16;100174.41;;;11.03;71.96
21594;BME280;10959;51.328;7.322;2022-11-11T08:09:43;100174.25;;;11.09;71.98
21594;BME280;10959;51.328;7.322;2022-11-11T08:12:10;100177.69;;;11.14;71.84
21594;BME280;10959;51.328;7.322;2022-11-11T08:14:55;100178.44;;;11.19;71.86
21594;BME280;10959;51.328;7.322;2022-11-11T08:17:22;100177.31;;;11.27;71.69
21594;BME280;10959;51.328;7.322;2022-11-11T08:19:48;100178.09;;;11.30;71.86
21594;BME280;10959;51.328;7.322;2022-11-11T08:22:15;100186.06;;;11.35;71.66
21594;BME280;10959;51.328;7.322;2022-11-11T08:24:41;100176.84;;;11.42;71.60
21594;BME280;10959;51.328;7.322;2022-11-11T08:27:08;100189.31;;;11.46;71.33
21594;BME280;10959;51.328;7.322;2022-11-11T08:29:35;100192.72;;;11.51;71.40
21594;BME280;10959;51.328;7.322;2022-11-11T08:32:03;100188.09;;;11.56;71.27
21594;BME280;10959;51.328;7.322;2022-11-11T08:34:30;100197.84;;;11.61;71.39
21594;BME280;10959;51.328;7.322;2022-11-11T08:36:56;100198.53;;;11.67;71.12
21594;BME280;10959;51.328;7.322;2022-11-11T08:39:23;100192.06;;;11.73;71.14
21594;BME280;10959;51.328;7.322;2022-11-11T08:41:49;100200.91;;;11.78;70.79
21594;BME280;10959;51.328;7.322;2022-11-11T08:44:16;100195.34;;;11.83;70.97
21594;BME280;10959;51.328;7.322;2022-11-11T08:46:42;100193.34;;;11.89;70.68
21594;BME280;10959;51.328;7.322;2022-11-11T08:49:10;100198.63;;;11.92;70.46
21594;BME280;10959;51.328;7.322;2022-11-11T08:51:37;100199.50;;;11.93;70.63
21594;BME280;10959;51.328;7.322;2022-11-11T08:54:03;100195.19;;;11.87;70.79
21594;BME280;10959;51.328;7.322;2022-11-11T08:56:30;100197.63;;;11.97;70.77
21594;BME280;10959;51.328;7.322;2022-11-11T08:58:56;100196.50;;;12.04;70.28
21594;BME280;10959;51.328;7.322;2022-11-11T09:01:23;100198.16;;;12.08;70.38
21594;BME280;10959;51.328;7.322;2022-11-11T09:03:49;100194.31;;;12.15;70.19
21594;BME280;10959;51.328;7.322;2022-11-11T09:06:17;100196.63;;;12.27;70.05
21594;BME280;10959;51.328;7.322;2022-11-11T09:08:43;100192.13;;;12.26;69.63
21594;BME280;10959;51.328;7.322;2022-11-11T09:11:10;100201.63;;;12.38;69.70
21594;BME280;10959;51.328;7.322;2022-11-11T09:13:37;100198.75;;;12.43;69.79
21594;BME280;10959;51.328;7.322;2022-11-11T09:16:05;100202.09;;;12.51;69.17
21594;BME280;10959;51.328;7.322;2022-11-11T09:18:31;100204.56;;;12.57;69.11
21594;BME280;10959;51.328;7.322;2022-11-11T09:20:58;100208.78;;;12.66;69.01
21594;BME280;10959;51.328;7.322;2022-11-11T09:23:26;100205.84;;;12.72;68.80
21594;BME280;10959;51.328;7.322;2022-11-11T09:25:52;100204.63;;;12.81;69.02
21594;BME280;10959;51.328;7.322;2022-11-11T09:28:19;100202.66;;;12.86;68.68
21594;BME280;10959;51.328;7.322;2022-11-11T09:30:46;100201.47;;;12.93;68.76
21594;BME280;10959;51.328;7.322;2022-11-11T09:33:12;100202.34;;;12.94;68.49
21594;BME280;10959;51.328;7.322;2022-11-11T09:35:40;100197.50;;;13.04;68.38
21594;BME280;10959;51.328;7.322;2022-11-11T09:38:08;100201.72;;;13.11;68.34
21594;BME280;10959;51.328;7.322;2022-11-11T09:40:45;100199.31;;;13.03;68.04
21594;BME280;10959;51.328;7.322;2022-11-11T09:43:23;100199.75;;;13.16;68.06
21594;BME280;10959;51.328;7.322;2022-11-11T09:46:03;100201.16;;;13.26;67.92
21594;BME280;10959;51.328;7.322;2022-11-11T09:48:55;100208.16;;;13.32;67.90
21594;BME280;10959;51.328;7.322;2022-11-11T09:51:27;100211.88;;;13.53;67.60
21594;BME280;10959;51.328;7.322;2022-11-11T09:53:59;100207.53;;;13.49;66.78
21594;BME280;10959;51.328;7.322;2022-11-11T09:56:31;100210.94;;;13.54;66.22
21594;BME280;10959;51.328;7.322;2022-11-11T09:59:02;100214.34;;;13.59;66.70
21594;BME280;10959;51.328;7.322;2022-11-11T10:01:33;100216.66;;;13.69;66.57
21594;BME280;10959;51.328;7.322;2022-11-11T10:04:11;100220.91;;;13.76;66.18
21594;BME280;10959;51.328;7.322;2022-11-11T10:06:42;100217.91;;;13.83;66.34
21594;BME280;10959;51.328;7.322;2022-11-11T10:09:17;100215.38;;;13.79;65.80
21594;BME280;10959;51.328;7.322;2022-11-11T10:11:52;100229.47;;;13.87;66.04
21594;BME280;10959;51.328;7.322;2022-11-11T10:14:27;100228.53;;;13.88;65.10
21594;BME280;10959;51.328;7.322;2022-11-11T10:17:04;100220.53;;;13.85;64.86
21594;BME280;10959;51.328;7.322;2022-11-11T10:19:40;100229.34;;;13.90;64.75
21594;BME280;10959;51.328;7.322;2022-11-11T10:22:19;100229.91;;;13.98;64.87
21594;BME280;10959;51.328;7.322;2022-11-11T10:24:51;100228.59;;;14.09;64.06
21594;BME280;10959;51.328;7.322;2022-11-11T10:27:21;100230.09;;;14.16;64.31
21594;BME280;10959;51.328;7.322;2022-11-11T10:29:48;100229.31;;;14.34;63.88
21594;BME280;10959;51.328;7.322;2022-11-11T10:32:17;100224.53;;;14.41;63.13
21594;BME280;10959;51.328;7.322;2022-11-11T10:34:45;100236.94;;;14.47;63.27
21594;BME280;10959;51.328;7.322;2022-11-11T10:37:17;100234.09;;;14.50;63.03
21594;BME280;10959;51.328;7.322;2022-11-11T10:39:59;100239.53;;;14.50;63.20
21594;BME280;10959;51.328;7.322;2022-11-11T10:42:28;100244.81;;;14.75;62.16
21594;BME280;10959;51.328;7.322;2022-11-11T10:44:58;100236.94;;;14.90;61.90
21594;BME280;10959;51.328;7.322;2022-11-11T10:47:34;100242.69;;;15.02;62.26
21594;BME280;10959;51.328;7.322;2022-11-11T10:50:08;100248.22;;;15.20;61.36
21594;BME280;10959;51.328;7.322;2022-11-11T10:52:42;100257.59;;;15.33;61.50
21594;BME280;10959;51.328;7.322;2022-11-11T10:55:13;100251.56;;;15.46;60.94
21594;BME280;10959;51.328;7.322;2022-11-11T10:57:48;100262.28;;;15.49;60.21
21594;BME280;10959;51.328;7.322;2022-11-11T11:00:15;100261.16;;;15.73;60.44
21594;BME280;10959;51.328;7.322;2022-11-11T11:02:47;100255.16;;;15.86;59.83
21594;BME280;10959;51.328;7.322;2022-11-11T11:05:21;100259.28;;;15.95;59.89
21594;BME280;10959;51.328;7.322;2022-11-11T11:07:53;100252.03;;;16.13;59.82
21594;BME280;10959;51.328;7.322;2022-11-11T11:10:24;100266.50;;;16.32;59.71
21594;BME280;10959;51.328;7.322;2022-11-11T11:12:59;100258.19;;;16.35;59.40
21594;BME280;10959;51.328;7.322;2022-11-11T11:15:30;100263.00;;;16.65;58.45
21594;BME280;10959;51.328;7.322;2022-11-11T11:18:00;100264.63;;;16.69;57.89
21594;BME280;10959;51.328;7.322;2022-11-11T11:20:28;100262.59;;;16.73;58.38
21594;BME280;10959;51.328;7.322;2022-11-11T11:22:55;100253.91;;;16.84;57.94
21594;BME280;10959;51.328;7.322;2022-11-11T11:25:24;100251.84;;;16.89;58.20
21594;BME280;10959;51.328;7.322;2022-11-11T11:28:06;100238.53;;;16.83;58.71
21594;BME280;10959;51.328;7.322;2022-11-11T11:30:33;100233.31;;;17.13;58.15
21594;BME280;10959;51.328;7.322;2022-11-11T11:33:01;100237.06;;;17.28;58.00
21594;BME280;10959;51.328;7.322;2022-11-11T11:35:34;100235.31;;;17.27;56.85
21594;BME280;10959;51.328;7.322;2022-11-11T11:38:03;100236.06;;;17.47;56.68
21594;BME280;10959;51.328;7.322;2022-11-11T11:40:47;100236.72;;;17.34;57.39
21594;BME280;10959;51.328;7.322;2022-11-11T11:43:33;100223.56;;;17.42;56.67
21594;BME280;10959;51.328;7.322;2022-11-11T11:46:01;100222.53;;;17.61;56.45
21594;BME280;10959;51.328;7.322;2022-11-11T11:48:40;100224.25;;;17.46;56.56
21594;BME280;10959;51.328;7.322;2022-11-11T11:51:19;100223.56;;;17.42;55.91
21594;BME280;10959;51.328;7.322;2022-11-11T11:54:01;100217.41;;;17.39;55.26
21594;BME280;10959;51.328;7.322;2022-11-11T11:56:36;100216.88;;;17.32;56.19
21594;BME280;10959;51.328;7.322;2022-11-11T11:59:10;100211.09;;;17.38;55.68
21594;BME280;10959;51.328;7.322;2022-11-11T12:01:47;100216.34;;;17.41;55.68
21594;BME280;10959;51.328;7.322;2022-11-11T12:04:33;100210.63;;;17.30;55.67
21594;BME280;10959;51.328;7.322;2022-11-11T12:07:11;100210.91;;;17.41;55.49
21594;BME280;10959;51.328;7.322;2022-11-11T12:09:52;100218.31;;;17.39;55.28
21594;BME280;10959;51.328;7.322;2022-11-11T12:12:30;100212.84;;;17.39;55.12
21594;BME280;10959;51.328;7.322;2022-11-11T12:15:06;100213.03;;;17.36;55.06
21594;BME280;10959;51.328;7.322;2022-11-11T12:17:47;100212.94;;;17.38;54.93
21594;BME280;10959;51.328;7.322;2022-11-11T12:20:19;100212.94;;;17.38;54.90
21594;BME280;10959;51.328;7.322;2022-11-11T12:22:59;100207.91;;;17.30;54.92
21594;BME280;10959;51.328;7.322;2022-11-11T12:25:41;100207.47;;;17.22;55.16
21594;BME280;10959;51.328;7.322;2022-11-11T12:28:19;100204.88;;;17.19;54.50
21594;BME280;10959;51.328;7.322;2022-11-11T12:31:01;100209.06;;;17.08;55.10
21594;BME280;10959;51.328;7.322;2022-11-11T12:33:46;100200.31;;;17.03;54.76
21594;BME280;10959;51.328;7.322;2022-11-11T12:36:22;100202.22;;;17.01;54.66
21594;BME280;10959;51.328;7.322;2022-11-11T12:38:56;100199.66;;;16.98;55.10
21594;BME280;10959;51.328;7.322;2022-11-11T12:41:28;100198.72;;;16.99;54.87
21594;BME280;10959;51.328;7.322;2022-11-11T12:44:04;100193.25;;;16.99;54.88
21594;BME280;10959;51.328;7.322;2022-11-11T12:46:41;100191.97;;;16.89;55.29
21594;BME280;10959;51.328;7.322;2022-11-11T12:49:23;100193.09;;;16.85;55.16
21594;BME280;10959;51.328;7.322;2022-11-11T12:51:56;100195.25;;;16.96;55.19
21594;BME280;10959;51.328;7.322;2022-11-11T12:54:33;100193.75;;;16.90;54.53
21594;BME280;10959;51.328;7.322;2022-11-11T12:57:11;100188.44;;;16.87;54.93
21594;BME280;10959;51.328;7.322;2022-11-11T13:00:00;100191.97;;;16.71;55.32
21594;BME280;10959;51.328;7.322;2022-11-11T13:03:04;100194.28;;;16.62;55.39
21594;BME280;10959;51.328;7.322;2022-11-11T13:05:34;100189.91;;;16.76;55.16
21594;BME280;10959;51.328;7.322;2022-11-11T13:08:36;100190.69;;;16.44;55.46
21594;BME280;10959;51.328;7.322;2022-11-11T13:11:11;100189.59;;;16.48;55.48